14 Oct 2019 23:54 UTC 2019287+23:54 UTC

Overview Datums Bench Marks Data Query Site Visit Daily QC Messages Attributes

079: SALT08

27° 52' 14" N   97° 31' 3" W
SALT08
City of Corpus Christi Salinity Monitoring Salinity

Station Information

SALT08
SALT08
more pictures
 
Station Name:SALT08
DNR ID:079
Location:27° 52' 14" N, 97° 31' 3" W

Water Level Forecasts

Latest Observations

Series Metric English Marine Observed at
Water Temperature 25.3 °C 77.5 °F 77.5 °F Oct 14 18:42 CDT
00h07m ago
Salinity 31.100 psu 31.100 psu 31.100 psu Oct 14 18:42 CDT
00h07m ago

Maps

SALT08
All Stations in Area
Entire Network
 

Recent Observations

Date/Time Water
Temp (°F)
Sal (psu)
Oct 14 18:00 CDT 77.4 31.200
Oct 14 17:00 CDT 78.4 30.300
Oct 14 16:00 CDT 78.3 30.900
Oct 14 15:00 CDT 78.4 27.800
Oct 14 14:00 CDT 74.8 26.700
Oct 14 13:00 CDT 74.3 26.800
Oct 14 12:00 CDT 73.0 26.800
Oct 14 11:00 CDT 72.3 26.900
Oct 14 10:00 CDT 72.0 26.800
Oct 14 09:00 CDT 71.4 31.800
Oct 14 08:00 CDT 71.4 32.200
Oct 14 07:00 CDT 71.4 32.300
Oct 14 06:00 CDT 71.4 32.200
Oct 14 05:00 CDT 71.8 31.900
Oct 14 04:00 CDT 71.6 31.900
Oct 14 03:00 CDT 71.6 31.900
Oct 14 02:00 CDT 71.6 31.800
Oct 14 01:00 CDT 71.6 31.900
Oct 14 00:00 CDT 71.6 31.900
Oct 13 23:00 CDT 71.4 31.900
Oct 13 22:00 CDT 71.4 31.900
Oct 13 21:00 CDT 71.4 31.900
Oct 13 20:00 CDT 71.6 31.800
Oct 13 19:00 CDT 71.4 31.600
Oct 13 18:00 CDT 71.4 31.700

Historical Data Availability